createdAt,value
2022-08-19T01:12:19.290Z,17.70
2022-08-19T01:17:16.121Z,17.70
2022-08-19T01:19:44.982Z,17.60
2022-08-19T01:22:14.413Z,17.50
2022-08-19T01:24:45.193Z,17.50
2022-08-19T01:27:17.977Z,17.40
2022-08-19T01:32:21.130Z,17.40
2022-08-19T01:39:58.762Z,17.40
2022-08-19T01:42:30.351Z,17.40
2022-08-19T01:44:58.057Z,17.40
2022-08-19T01:59:45.593Z,17.30
2022-08-19T02:02:12.573Z,17.40
2022-08-19T02:04:39.836Z,17.30
2022-08-19T02:09:36.278Z,17.30
2022-08-19T02:12:03.875Z,17.20
2022-08-19T02:14:30.887Z,17.20
2022-08-19T02:26:47.745Z,17.00
2022-08-19T02:31:42.062Z,17.00
2022-08-19T02:46:52.842Z,16.90
2022-08-19T03:14:06.071Z,16.90
2022-08-19T03:16:35.587Z,16.90
2022-08-19T03:21:33.210Z,16.80
2022-08-19T03:24:04.150Z,16.70
2022-08-19T03:31:44.351Z,16.80
2022-08-19T03:36:47.223Z,16.80
2022-08-19T03:39:15.201Z,16.80
2022-08-19T03:41:46.230Z,16.70
2022-08-19T03:46:56.367Z,16.70
2022-08-19T03:49:29.361Z,16.70
2022-08-19T03:54:26.342Z,16.80
2022-08-19T03:56:55.808Z,16.80
2022-08-19T03:59:29.353Z,16.80
2022-08-19T04:01:59.281Z,16.80
2022-08-19T04:04:29.019Z,16.80
2022-08-19T04:09:24.226Z,16.80
2022-08-19T04:11:54.911Z,16.90
2022-08-19T04:19:19.328Z,17.00
2022-08-19T04:24:15.207Z,17.10
2022-08-19T04:29:15.571Z,17.20
2022-08-19T04:31:45.413Z,17.30
2022-08-19T04:41:57.525Z,17.50
2022-08-19T04:49:23.941Z,17.70
2022-08-19T04:59:36.314Z,18.00
2022-08-19T05:02:04.188Z,18.00
2022-08-19T05:14:47.113Z,18.30
2022-08-19T05:25:22.282Z,18.50
2022-08-19T05:27:49.410Z,18.60
2022-08-19T05:40:09.313Z,18.90
2022-08-19T05:52:32.487Z,19.10
2022-08-19T05:55:00.696Z,19.30
2022-08-19T05:57:29.950Z,19.40
2022-08-19T06:02:27.679Z,19.70
2022-08-19T06:07:22.494Z,19.70
2022-08-19T06:10:01.028Z,19.80
2022-08-19T06:12:36.090Z,19.80
2022-08-19T06:15:09.585Z,20.00
2022-08-19T06:20:07.270Z,20.10
2022-08-19T06:25:06.873Z,20.30
2022-08-19T06:30:03.172Z,20.30
2022-08-19T06:32:30.114Z,20.40
2022-08-19T06:34:57.192Z,20.50
2022-08-19T06:39:51.948Z,20.50
2022-08-19T06:47:23.758Z,20.70
2022-08-19T06:50:03.184Z,20.80
2022-08-19T06:55:06.380Z,20.90
2022-08-19T07:07:26.379Z,21.50
2022-08-19T07:12:38.021Z,21.90
2022-08-19T07:15:10.935Z,22.40
2022-08-19T07:20:09.480Z,22.80
2022-08-19T07:22:38.632Z,23.00
2022-08-19T07:25:06.766Z,23.10
2022-08-19T07:27:34.978Z,23.20
2022-08-19T07:30:02.127Z,23.40
2022-08-19T07:32:29.157Z,23.40
2022-08-19T07:34:57.042Z,23.40
2022-08-19T07:37:32.458Z,23.40
2022-08-19T07:40:01.332Z,23.50
2022-08-19T07:44:58.911Z,23.80
2022-08-19T07:47:50.259Z,23.80
2022-08-19T07:50:13.052Z,23.90
2022-08-19T07:52:40.698Z,23.90
2022-08-19T07:55:40.592Z,23.90
2022-08-19T08:00:25.284Z,23.90
2022-08-19T08:02:55.647Z,23.90
2022-08-19T08:08:33.582Z,23.90
2022-08-19T08:11:01.320Z,23.90
2022-08-19T08:13:28.901Z,23.90
2022-08-19T08:15:57.365Z,24.00
2022-08-19T08:18:28.032Z,24.10
2022-08-19T08:23:26.810Z,24.20
2022-08-19T08:25:57.679Z,24.20
2022-08-19T08:28:26.163Z,24.30
2022-08-19T08:30:56.727Z,24.40
2022-08-19T08:36:05.512Z,24.70
2022-08-19T08:38:38.895Z,24.70
2022-08-19T08:41:36.001Z,24.80
2022-08-19T08:44:05.601Z,24.90
2022-08-19T08:46:47.850Z,25.00
2022-08-19T08:49:32.305Z,25.10
2022-08-19T08:52:25.276Z,25.10
2022-08-19T08:55:10.017Z,25.10
2022-08-19T08:57:56.104Z,25.10
2022-08-19T09:00:27.730Z,25.10
2022-08-19T09:02:56.004Z,25.20
2022-08-19T09:05:27.178Z,25.50
2022-08-19T09:08:14.883Z,25.70
2022-08-19T09:10:55.227Z,25.80
2022-08-19T09:14:06.700Z,25.80
2022-08-19T09:16:33.602Z,25.90
2022-08-19T09:19:06.381Z,25.80
2022-08-19T09:21:34.333Z,25.80
2022-08-19T09:24:03.448Z,25.70
2022-08-19T09:26:47.201Z,25.80
2022-08-19T09:29:15.652Z,25.70
2022-08-19T09:34:21.036Z,25.80
2022-08-19T09:36:50.627Z,25.80
2022-08-19T09:41:47.661Z,25.70
2022-08-19T09:44:17.061Z,25.60
2022-08-19T09:49:18.353Z,25.30
2022-08-19T09:51:50.840Z,25.20
2022-08-19T09:54:23.866Z,25.00
2022-08-19T09:56:56.779Z,24.80
2022-08-19T09:59:24.466Z,24.70
2022-08-19T10:04:22.431Z,23.30
2022-08-19T10:06:55.428Z,22.90
2022-08-19T10:09:34.075Z,22.40
2022-08-19T10:12:03.631Z,22.20
2022-08-19T10:14:31.422Z,22.10
2022-08-19T10:16:59.245Z,21.90
2022-08-19T10:21:55.617Z,21.90
2022-08-19T10:26:58.865Z,22.40
2022-08-19T10:29:32.672Z,22.50
2022-08-19T10:32:09.693Z,22.70
2022-08-19T10:34:48.788Z,22.90
2022-08-19T10:37:23.923Z,23.00
2022-08-19T10:39:58.119Z,23.00
2022-08-19T10:42:25.174Z,23.10
2022-08-19T10:44:52.268Z,23.20
2022-08-19T10:47:24.999Z,23.20
2022-08-19T10:50:13.465Z,23.30
2022-08-19T10:52:49.161Z,23.30
2022-08-19T10:55:41.862Z,23.30
2022-08-19T10:58:23.274Z,23.40
2022-08-19T11:00:58.459Z,23.40
2022-08-19T11:03:27.595Z,23.30
2022-08-19T11:08:35.886Z,23.00
2022-08-19T11:13:34.556Z,22.90
2022-08-19T11:16:07.714Z,23.00
2022-08-19T11:18:40.114Z,23.20
2022-08-19T11:23:51.383Z,23.30
2022-08-19T11:26:19.265Z,23.20
2022-08-19T11:28:46.650Z,23.40
2022-08-19T11:33:47.794Z,23.40
2022-08-19T11:38:43.640Z,23.30
2022-08-19T11:41:10.657Z,23.20
2022-08-19T11:43:37.969Z,23.20
2022-08-19T11:46:10.995Z,23.10
2022-08-19T11:48:38.294Z,23.10
2022-08-19T11:51:09.710Z,23.20
2022-08-19T11:53:37.537Z,23.30
2022-08-19T11:58:33.310Z,23.20
2022-08-19T12:01:00.258Z,23.20
2022-08-19T12:03:27.705Z,23.20
2022-08-19T12:05:54.953Z,23.00
2022-08-19T12:08:21.879Z,22.90
2022-08-19T12:10:48.817Z,22.80
2022-08-19T12:13:19.428Z,22.40
2022-08-19T12:15:48.520Z,22.20
2022-08-19T12:20:44.106Z,21.90
2022-08-19T12:23:11.810Z,21.70
2022-08-19T12:25:49.485Z,21.70
2022-08-19T12:28:17.040Z,21.50
2022-08-19T12:30:44.572Z,21.40
2022-08-19T12:33:11.526Z,21.30
2022-08-19T12:35:45.837Z,21.30
2022-08-19T12:48:33.859Z,21.40
2022-08-19T12:50:56.438Z,21.50
2022-08-19T12:53:23.340Z,21.60
2022-08-19T12:55:57.512Z,21.60
2022-08-19T12:58:27.302Z,21.70
2022-08-19T13:00:54.846Z,21.80
2022-08-19T13:03:25.291Z,21.90
2022-08-19T13:05:52.639Z,21.90
2022-08-19T13:08:24.865Z,22.00
2022-08-19T13:13:19.241Z,22.20
2022-08-19T13:18:14.089Z,22.40
2022-08-19T13:20:41.806Z,22.50
2022-08-19T13:23:09.689Z,22.50
2022-08-19T13:25:37.417Z,22.40
2022-08-19T13:28:07.517Z,22.30
2022-08-19T13:30:53.386Z,22.30
2022-08-19T13:33:20.747Z,22.30
2022-08-19T13:35:57.036Z,22.30
2022-08-19T13:38:24.751Z,22.20
2022-08-19T13:43:25.191Z,22.20
2022-08-19T13:45:56.459Z,22.20
2022-08-19T13:48:24.689Z,22.10
2022-08-19T13:50:51.722Z,22.00
2022-08-19T13:53:18.974Z,21.90
2022-08-19T13:55:46.044Z,21.80
2022-08-19T13:58:14.507Z,21.80
2022-08-19T14:00:44.846Z,21.80
2022-08-19T14:03:12.293Z,21.80
2022-08-19T14:05:39.598Z,21.90
2022-08-19T14:08:06.667Z,21.90
2022-08-19T14:13:04.033Z,22.00
2022-08-19T14:15:31.677Z,21.90
2022-08-19T14:17:58.859Z,21.90
2022-08-19T14:20:26.642Z,22.00
2022-08-19T14:22:55.044Z,22.00
2022-08-19T14:25:25.245Z,21.90
2022-08-19T14:27:52.413Z,21.80
2022-08-19T14:30:23.400Z,21.70
2022-08-19T14:32:50.361Z,21.60
2022-08-19T14:35:17.704Z,21.60
2022-08-19T14:37:46.149Z,21.40
2022-08-19T14:40:18.011Z,21.50
2022-08-19T14:45:13.098Z,21.60
2022-08-19T14:47:49.928Z,21.70
2022-08-19T14:50:18.452Z,21.70
2022-08-19T14:52:48.874Z,21.80
2022-08-19T14:55:19.315Z,21.90
2022-08-19T14:57:46.613Z,21.80
2022-08-19T15:00:14.738Z,21.80
2022-08-19T15:02:45.747Z,21.90
2022-08-19T15:05:13.813Z,22.00
2022-08-19T15:07:41.923Z,22.10
2022-08-19T15:10:11.799Z,22.10
2022-08-19T15:12:43.807Z,22.10
2022-08-19T15:15:14.764Z,22.20
2022-08-19T15:17:46.335Z,22.30
2022-08-19T15:20:20.460Z,22.30
2022-08-19T15:22:47.426Z,22.30
2022-08-19T15:25:17.418Z,22.30
2022-08-19T15:27:44.366Z,22.30
2022-08-19T15:30:13.432Z,22.30
2022-08-19T15:32:40.608Z,22.40
2022-08-19T15:35:08.463Z,22.40
2022-08-19T15:40:09.684Z,22.50
2022-08-19T15:42:38.707Z,22.50
2022-08-19T15:45:07.254Z,22.50
2022-08-19T15:47:34.576Z,22.50
2022-08-19T15:50:23.517Z,22.60
2022-08-19T15:55:32.674Z,22.70
2022-08-19T15:58:28.606Z,22.80
2022-08-19T16:01:25.453Z,22.70
2022-08-19T16:04:15.585Z,22.80
2022-08-19T16:07:10.362Z,22.80
2022-08-19T16:09:37.257Z,22.80
2022-08-19T16:12:06.377Z,22.80
2022-08-19T16:14:35.514Z,22.80
2022-08-19T16:17:02.861Z,22.80
2022-08-19T16:19:31.086Z,22.80
2022-08-19T16:21:58.011Z,22.80
2022-08-19T16:24:28.379Z,22.80
2022-08-19T16:26:56.490Z,22.80
2022-08-19T16:29:33.401Z,22.70
2022-08-19T16:32:06.155Z,22.60
2022-08-19T16:34:33.564Z,22.40
2022-08-19T16:37:00.818Z,22.40
2022-08-19T16:39:27.811Z,22.30
2022-08-19T16:41:54.779Z,22.20
2022-08-19T16:44:22.076Z,22.10
2022-08-19T16:46:58.595Z,22.10
2022-08-19T16:49:53.100Z,22.10
2022-08-19T16:52:15.019Z,22.10
2022-08-19T16:54:43.600Z,22.20
2022-08-19T16:57:12.096Z,22.20
2022-08-19T16:59:43.818Z,22.20
2022-08-19T17:02:20.505Z,22.10
2022-08-19T17:04:57.438Z,22.00
2022-08-19T17:07:28.469Z,22.00
2022-08-19T17:09:56.051Z,22.10
2022-08-19T17:12:31.621Z,22.10
2022-08-19T17:24:58.529Z,21.70
2022-08-19T17:32:27.365Z,21.40
2022-08-19T17:34:54.438Z,21.50
2022-08-19T17:39:49.232Z,21.50
2022-08-19T17:54:40.154Z,21.30
2022-08-19T17:57:07.319Z,21.30
2022-08-19T17:59:34.368Z,21.30
2022-08-19T18:02:01.484Z,21.40
2022-08-19T18:04:29.919Z,21.40
2022-08-19T18:06:57.443Z,21.40
2022-08-19T18:09:41.192Z,21.30
2022-08-19T18:14:39.346Z,21.20
2022-08-19T18:17:14.468Z,21.20
2022-08-19T18:22:24.082Z,21.20
2022-08-19T18:27:19.201Z,21.20
2022-08-19T18:29:46.261Z,21.20
2022-08-19T18:32:15.844Z,21.10
2022-08-19T18:34:44.338Z,21.10
2022-08-19T18:39:58.505Z,21.00
2022-08-19T18:45:30.751Z,21.00
2022-08-19T18:50:57.425Z,21.00
2022-08-19T18:55:54.061Z,21.00
2022-08-19T18:58:26.475Z,21.00
2022-08-19T19:00:57.499Z,20.90
2022-08-19T19:03:27.081Z,20.90
2022-08-19T19:05:54.554Z,21.00
2022-08-19T19:10:55.611Z,20.80
2022-08-19T19:13:22.612Z,20.80
2022-08-19T19:18:17.458Z,20.70
2022-08-19T19:23:12.563Z,20.70
2022-08-19T19:25:50.713Z,20.80
2022-08-19T19:28:22.450Z,20.80
2022-08-19T19:30:49.389Z,20.60
2022-08-19T19:35:47.178Z,20.50
2022-08-19T19:43:09.836Z,20.40
2022-08-19T19:45:38.264Z,20.40
2022-08-19T19:48:06.199Z,20.50
2022-08-19T19:50:33.245Z,20.40
2022-08-19T19:53:00.181Z,20.40
2022-08-19T19:55:29.301Z,20.30
2022-08-19T19:57:57.967Z,20.30
2022-08-19T20:00:25.437Z,20.30
2022-08-19T20:02:55.359Z,20.20
2022-08-19T20:05:23.235Z,20.20
2022-08-19T20:10:37.110Z,20.30
2022-08-19T20:13:05.487Z,20.30
2022-08-19T20:15:33.306Z,20.30
2022-08-19T20:18:02.360Z,20.20
2022-08-19T20:20:30.379Z,20.20
2022-08-19T20:22:57.585Z,20.20
2022-08-19T20:27:52.218Z,20.20
2022-08-19T20:30:23.141Z,20.20
2022-08-19T20:37:47.342Z,20.10
2022-08-19T20:40:16.591Z,20.00
2022-08-19T20:45:32.700Z,20.10
2022-08-19T21:02:49.962Z,19.90
2022-08-19T21:10:11.731Z,19.90
2022-08-19T21:15:07.331Z,19.80
2022-08-19T21:17:34.421Z,19.80
2022-08-19T21:22:28.816Z,19.80
2022-08-19T21:24:55.791Z,19.80
2022-08-19T21:27:22.794Z,19.70
2022-08-19T21:29:49.752Z,19.70
2022-08-19T21:42:20.126Z,19.60
2022-08-19T21:47:14.495Z,19.60
2022-08-19T21:52:09.147Z,19.60
2022-08-19T21:54:38.023Z,19.70
2022-08-19T21:57:10.896Z,19.80
2022-08-19T22:02:21.311Z,19.90
2022-08-19T22:04:50.937Z,19.90
2022-08-19T22:07:20.128Z,19.90
2022-08-19T22:09:49.313Z,19.80
2022-08-19T22:12:27.567Z,19.80
2022-08-19T22:14:55.603Z,19.70
2022-08-19T22:17:24.114Z,19.70
2022-08-19T22:22:24.261Z,19.70
2022-08-19T22:24:52.378Z,19.70
2022-08-19T22:27:20.691Z,19.60
2022-08-19T22:29:47.916Z,19.60
2022-08-19T22:42:22.165Z,19.70
2022-08-19T22:54:50.963Z,19.60
2022-08-19T22:59:48.284Z,19.60
2022-08-19T23:02:19.265Z,19.60
2022-08-19T23:14:37.506Z,19.60
2022-08-19T23:19:33.563Z,19.60
2022-08-19T23:32:28.271Z,19.80
2022-08-19T23:34:56.536Z,20.00
2022-08-19T23:57:13.098Z,20.10
